Time;durP1;ratioP1;P1;durP2;ratioP2;P2;SDS_P1;SDS_P2;PMS_P1;PMS_P2;Temp;Humidity;BMP_temperature;BMP_pressure;BME280_temperature;BME280_humidity;BME280_pressure;Samples;Min_cycle;Max_cycle;Signal;HPM_P1;HPM_P2
2022/08/06 00:01:55;;;;;;;3.38;0.70;;;;;;;17.74;58.09;101766.50;5104516;27;20587;-64
2022/08/06 00:04:22;;;;;;;4.03;1.00;;;;;;;17.59;58.51;101766.66;5062825;28;20439;-63
2022/08/06 00:06:48;;;;;;;9.65;1.65;;;;;;;17.42;58.97;101762.41;5064064;28;20488;-63
2022/08/06 00:09:15;;;;;;;6.70;1.08;;;;;;;17.40;59.39;101762.50;5097567;27;20129;-65
2022/08/06 00:11:43;;;;;;;2.78;0.85;;;;;;;17.44;58.96;101758.69;5098641;27;20040;-64
2022/08/06 00:14:09;;;;;;;7.10;1.05;;;;;;;17.60;57.90;101757.72;5086086;27;20047;-64
2022/08/06 00:16:36;;;;;;;1.98;0.80;;;;;;;17.35;58.95;101761.94;5078999;28;20051;-64
2022/08/06 00:19:03;;;;;;;5.22;1.08;;;;;;;17.37;59.28;101773.28;5089222;28;20686;-63
2022/08/06 00:21:29;;;;;;;1.65;0.70;;;;;;;16.83;60.86;101772.28;5085948;28;20044;-64
2022/08/06 00:23:56;;;;;;;3.15;1.17;;;;;;;16.96;61.16;101772.41;5087705;28;20044;-64
2022/08/06 00:26:24;;;;;;;2.63;1.02;;;;;;;17.17;60.35;101786.09;5096075;27;20116;-64
2022/08/06 00:28:51;;;;;;;1.77;1.00;;;;;;;17.50;59.09;101784.81;5091363;27;20403;-64
2022/08/06 00:31:19;;;;;;;2.72;1.10;;;;;;;17.65;59.04;101787.47;5074190;28;20051;-64
2022/08/06 00:33:46;;;;;;;2.78;1.33;;;;;;;17.64;59.21;101797.22;5077009;27;20040;-64
2022/08/06 00:36:12;;;;;;;3.13;1.30;;;;;;;17.58;59.54;101797.63;5086951;28;20052;-64
2022/08/06 00:38:39;;;;;;;2.20;1.30;;;;;;;17.58;59.51;101794.13;5085542;28;20040;-64
2022/08/06 00:41:06;;;;;;;4.82;1.40;;;;;;;17.58;59.86;101797.63;5085766;27;20043;-64
2022/08/06 00:43:32;;;;;;;2.03;1.25;;;;;;;17.48;60.54;101799.09;5084652;27;20040;-65
2022/08/06 00:46:00;;;;;;;3.67;1.23;;;;;;;17.60;60.26;101798.38;5083228;28;20097;-65
2022/08/06 00:48:26;;;;;;;2.10;1.17;;;;;;;17.80;59.45;101795.28;5067490;28;20488;-64
2022/08/06 00:50:53;;;;;;;2.85;1.23;;;;;;;17.61;60.18;101797.44;5084287;28;20054;-65
2022/08/06 00:53:19;;;;;;;2.47;1.33;;;;;;;17.36;60.59;101797.25;5084391;28;20051;-65
2022/08/06 00:55:45;;;;;;;2.85;1.30;;;;;;;17.40;60.71;101807.59;5083321;28;20048;-65
2022/08/06 00:58:12;;;;;;;2.08;1.20;;;;;;;17.47;60.41;101805.38;5085929;28;20041;-65
2022/08/06 01:00:39;;;;;;;6.85;2.55;;;;;;;17.11;61.46;101797.91;5083347;28;20039;-64
2022/08/06 01:03:06;;;;;;;4.78;1.20;;;;;;;17.48;60.17;101794.66;5079261;28;20067;-65
2022/08/06 01:05:33;;;;;;;3.40;1.20;;;;;;;17.59;59.73;101786.06;5077737;28;20048;-64
2022/08/06 01:07:59;;;;;;;7.18;1.38;;;;;;;17.38;60.30;101790.91;5087928;28;20048;-64
2022/08/06 01:10:25;;;;;;;3.15;1.10;;;;;;;17.31;60.75;101799.34;5078386;27;20556;-64
2022/08/06 01:12:52;;;;;;;6.03;1.25;;;;;;;17.30;60.53;101789.66;5090226;27;20085;-64
2022/08/06 01:15:18;;;;;;;3.38;1.52;;;;;;;16.93;62.14;101788.47;5092287;27;20048;-63
2022/08/06 01:17:54;;;;;;;2.05;1.10;;;;;;;16.55;63.33;101793.44;5071844;28;20041;-64
2022/08/06 01:20:39;;;;;;;4.78;1.20;;;;;;;16.63;63.31;101790.34;5079441;28;20069;-64
2022/08/06 01:23:26;;;;;;;1.35;0.93;;;;;;;16.57;63.41;101796.00;5075739;27;20045;-64
2022/08/06 01:26:15;;;;;;;5.28;1.20;;;;;;;16.75;63.17;101803.69;5088170;27;20089;-64
2022/08/06 01:28:46;;;;;;;2.35;1.05;;;;;;;16.27;64.06;101791.53;5075729;27;20044;-64
2022/08/06 01:31:17;;;;;;;3.63;0.95;;;;;;;16.43;64.14;101797.66;5080260;27;20056;-63
2022/08/06 01:33:51;;;;;;;3.55;1.23;;;;;;;16.62;63.30;101793.94;5082792;27;20055;-64
2022/08/06 01:36:23;;;;;;;7.13;1.33;;;;;;;16.68;63.44;101801.50;5087019;28;20100;-64
2022/08/06 01:38:53;;;;;;;1.42;1.00;;;;;;;16.89;62.27;101793.09;5085164;28;20048;-64
2022/08/06 01:44:07;;;;;;;3.42;1.58;;;;;;;16.83;62.55;101797.94;5085344;28;20058;-64
2022/08/06 01:46:37;;;;;;;5.53;1.40;;;;;;;16.96;61.68;101809.50;5089703;28;20040;-63
2022/08/06 01:49:05;;;;;;;3.15;1.10;;;;;;;16.93;61.94;101814.97;5074525;28;20044;-64
2022/08/06 01:51:33;;;;;;;5.72;1.30;;;;;;;16.82;62.90;101807.66;5076117;28;20048;-64
2022/08/06 01:54:02;;;;;;;4.63;1.20;;;;;;;16.74;62.96;101804.63;5087243;28;20457;-64
2022/08/06 01:56:31;;;;;;;2.17;1.20;;;;;;;16.39;64.27;101812.00;5086423;28;20112;-63
2022/08/06 01:58:59;;;;;;;5.55;1.23;;;;;;;16.26;64.70;101818.94;5085279;28;20101;-63
2022/08/06 02:01:28;;;;;;;2.65;1.48;;;;;;;16.29;64.69;101817.94;5085179;28;20097;-63
2022/08/06 02:03:57;;;;;;;2.78;1.35;;;;;;;16.21;65.08;101820.16;5089840;28;20040;-64
2022/08/06 02:06:29;;;;;;;3.92;1.40;;;;;;;16.26;64.89;101826.06;5086827;28;20052;-64
2022/08/06 02:08:57;;;;;;;4.97;1.40;;;;;;;15.97;66.09;101822.41;5085038;28;20047;-64
2022/08/06 02:11:24;;;;;;;5.15;1.20;;;;;;;16.31;64.98;101840.72;5085701;28;20109;-64
2022/08/06 02:13:52;;;;;;;4.65;1.25;;;;;;;16.11;65.08;101834.88;5086397;28;20102;-64
2022/08/06 02:16:19;;;;;;;5.35;1.20;;;;;;;16.06;65.97;101837.78;5093535;28;20072;-64
2022/08/06 02:18:49;;;;;;;4.35;1.55;;;;;;;16.07;66.13;101837.69;5076516;27;20048;-64
2022/08/06 02:21:20;;;;;;;4.03;1.55;;;;;;;16.10;65.80;101843.75;5104666;27;20047;-64
2022/08/06 02:23:48;;;;;;;2.38;1.20;;;;;;;15.81;66.67;101837.47;5106128;27;20039;-64
2022/08/06 02:26:16;;;;;;;4.68;1.35;;;;;;;15.88;66.91;101839.69;5105522;27;20128;-64
2022/08/06 02:28:44;;;;;;;5.18;1.27;;;;;;;16.29;65.23;101844.41;5105204;27;20144;-64
2022/08/06 02:31:11;;;;;;;6.80;1.27;;;;;;;16.48;64.48;101851.16;5107090;27;20059;-64
2022/08/06 02:33:37;;;;;;;3.35;1.50;;;;;;;16.37;64.72;101855.41;5087872;27;20048;-64
2022/08/06 02:36:11;;;;;;;5.50;1.40;;;;;;;16.25;65.48;101867.56;5085351;28;20048;-64
2022/08/06 02:38:46;;;;;;;4.28;1.20;;;;;;;16.39;64.59;101859.66;5084557;27;20484;-64
2022/08/06 02:41:19;;;;;;;3.20;1.75;;;;;;;16.42;64.32;101862.13;5084588;27;20052;-64
2022/08/06 02:43:51;;;;;;;4.40;1.60;;;;;;;16.45;64.29;101859.28;5086156;27;20075;-63
2022/08/06 02:46:24;;;;;;;3.78;1.20;;;;;;;16.28;64.40;101864.72;5081607;28;20106;-63
2022/08/06 02:48:55;;;;;;;5.63;1.40;;;;;;;16.48;63.58;101874.16;5060764;28;20041;-63
2022/08/06 02:51:29;;;;;;;3.00;1.20;;;;;;;16.60;63.19;101883.19;5066688;27;20389;-63
2022/08/06 02:54:00;;;;;;;5.60;1.30;;;;;;;16.22;64.50;101875.63;5084047;27;20044;-63
2022/08/06 02:56:29;;;;;;;4.22;1.42;;;;;;;16.19;65.02;101885.53;5086567;27;20441;-63
2022/08/06 02:58:58;;;;;;;3.10;1.20;;;;;;;16.43;64.32;101884.16;5071870;27;20614;-63
2022/08/06 03:01:28;;;;;;;2.90;1.38;;;;;;;16.41;63.94;101881.59;5084340;27;20048;-63
2022/08/06 03:03:58;;;;;;;6.97;1.55;;;;;;;16.30;64.29;101873.41;5083389;27;20047;-63
2022/08/06 03:06:29;;;;;;;5.82;1.45;;;;;;;15.99;65.60;101873.47;5085232;27;20044;-74
2022/08/06 03:08:57;;;;;;;3.50;1.15;;;;;;;15.89;65.55;101878.41;5097319;27;20046;-73
2022/08/06 03:11:25;;;;;;;4.53;1.50;;;;;;;15.96;65.48;101876.28;5092320;27;20075;-74
2022/08/06 03:13:53;;;;;;;5.38;1.83;;;;;;;15.80;66.64;101878.06;5084994;27;20481;-74
2022/08/06 03:16:20;;;;;;;2.97;1.30;;;;;;;16.11;65.41;101887.81;5085772;27;20113;-74
2022/08/06 03:18:49;;;;;;;5.10;1.40;;;;;;;15.93;65.51;101894.94;5082467;28;20708;-72
2022/08/06 03:21:17;;;;;;;2.55;1.13;;;;;;;15.88;65.82;101889.94;5083374;28;20101;-73
2022/08/06 03:23:45;;;;;;;3.85;1.67;;;;;;;15.97;65.35;101892.06;5085537;27;20083;-73
2022/08/06 03:26:12;;;;;;;2.65;1.10;;;;;;;15.84;65.40;101895.47;5085883;27;20082;-74
2022/08/06 03:28:39;;;;;;;2.58;1.10;;;;;;;15.67;66.24;101892.91;5084354;27;20108;-73
2022/08/06 03:31:07;;;;;;;4.75;1.35;;;;;;;15.67;65.92;101899.03;5085156;27;20040;-74
2022/08/06 03:33:34;;;;;;;4.95;1.30;;;;;;;15.70;65.92;101900.69;5085552;27;20048;-73
2022/08/06 03:36:03;;;;;;;3.60;1.30;;;;;;;15.80;65.56;101901.88;5084147;28;20549;-73
2022/08/06 03:38:37;;;;;;;2.10;1.13;;;;;;;15.83;65.40;101905.19;5082701;27;20052;-74
2022/08/06 03:41:07;;;;;;;4.70;1.50;;;;;;;15.80;65.65;101904.50;5095594;27;20051;-74
2022/08/06 03:43:34;;;;;;;3.63;1.15;;;;;;;15.71;65.90;101900.56;5105129;27;20043;-74
2022/08/06 03:46:03;;;;;;;2.28;1.10;;;;;;;15.55;66.09;101911.16;5092004;27;20044;-68
2022/08/06 03:48:33;;;;;;;7.15;1.40;;;;;;;15.77;65.62;101917.91;5083044;27;20453;-68
2022/08/06 03:51:04;;;;;;;5.13;1.20;;;;;;;15.72;66.19;101920.78;5083771;27;20165;-68
2022/08/06 03:53:34;;;;;;;3.97;1.38;;;;;;;15.63;66.31;101923.09;5069073;28;20048;-68
2022/08/06 03:56:03;;;;;;;7.50;1.13;;;;;;;15.72;65.58;101928.72;5079528;28;20042;-67
2022/08/06 03:58:32;;;;;;;7.53;1.48;;;;;;;15.71;66.01;101920.88;5063202;28;20500;-68
2022/08/06 04:01:02;;;;;;;5.60;1.30;;;;;;;15.77;66.02;101923.19;5064731;28;20524;-69
2022/08/06 04:03:29;;;;;;;4.03;1.50;;;;;;;15.60;66.64;101926.75;5064486;28;20557;-68
2022/08/06 04:05:57;;;;;;;5.20;1.35;;;;;;;15.67;66.38;101929.94;5064012;28;20052;-67
2022/08/06 04:08:25;;;;;;;4.65;1.25;;;;;;;16.14;64.82;101936.09;5082467;28;20101;-68
2022/08/06 04:10:52;;;;;;;5.72;1.45;;;;;;;15.90;65.16;101937.44;5083796;28;20464;-67
2022/08/06 04:13:21;;;;;;;3.85;1.23;;;;;;;15.66;66.77;101946.72;5087492;27;20599;-68
2022/08/06 04:15:50;;;;;;;4.55;1.42;;;;;;;15.79;66.01;101953.91;5083554;27;20093;-68
2022/08/06 04:18:19;;;;;;;2.60;1.10;;;;;;;15.84;65.65;101959.81;5085106;27;20109;-68
2022/08/06 04:20:48;;;;;;;2.92;1.10;;;;;;;15.83;66.26;101951.94;5083064;27;20094;-68
2022/08/06 04:23:15;;;;;;;7.05;1.58;;;;;;;15.94;65.85;101966.31;5083940;27;20079;-68
2022/08/06 04:25:44;;;;;;;3.00;1.25;;;;;;;15.71;66.31;101960.53;5098349;27;20036;-67
2022/08/06 04:28:13;;;;;;;2.55;1.30;;;;;;;15.89;65.68;101967.50;5072086;27;20511;-68
2022/08/06 04:30:40;;;;;;;2.13;1.30;;;;;;;15.69;66.39;101971.22;5072646;28;20122;-68
2022/08/06 04:33:13;;;;;;;1.48;1.10;;;;;;;15.67;66.14;101975.72;5058967;28;20044;-68
2022/08/06 04:35:41;;;;;;;1.70;1.02;;;;;;;15.58;66.74;101977.06;5064967;28;20045;-68
2022/08/06 04:38:07;;;;;;;2.78;1.20;;;;;;;15.91;66.01;101973.56;5080534;28;20044;-68
2022/08/06 04:40:34;;;;;;;2.10;1.30;;;;;;;16.02;65.52;101984.41;5084108;28;20067;-68
2022/08/06 04:43:00;;;;;;;2.38;1.30;;;;;;;16.11;66.03;101981.25;5078660;28;20557;-68
2022/08/06 04:45:28;;;;;;;2.05;1.20;;;;;;;16.45;64.57;101988.16;5088120;27;20105;-68
2022/08/06 04:47:55;;;;;;;3.60;1.10;;;;;;;16.64;64.16;101993.28;5086931;27;20044;-68
2022/08/06 04:50:23;;;;;;;4.70;1.35;;;;;;;16.66;64.19;102002.88;5087249;27;20859;-68
2022/08/06 04:52:49;;;;;;;1.92;1.13;;;;;;;16.69;64.12;102005.34;5087886;27;20043;-68
2022/08/06 04:55:18;;;;;;;1.88;1.02;;;;;;;16.84;63.15;102008.91;5087274;27;20462;-68
2022/08/06 04:57:45;;;;;;;4.55;1.27;;;;;;;17.07;62.69;102018.19;5086517;27;20048;-68
2022/08/06 05:00:12;;;;;;;3.35;1.30;;;;;;;16.86;63.63;102010.53;5092205;27;20104;-68
2022/08/06 05:02:39;;;;;;;1.67;1.35;;;;;;;16.93;63.21;102016.31;5094263;27;20450;-68
2022/08/06 05:05:09;;;;;;;4.35;1.58;;;;;;;17.05;63.15;102015.59;5086086;27;20047;-69
2022/08/06 05:07:40;;;;;;;3.80;1.27;;;;;;;17.25;63.43;102017.09;5089747;27;20052;-69
2022/08/06 05:10:08;;;;;;;4.72;1.55;;;;;;;17.44;61.85;102015.06;5106301;27;20067;-68
2022/08/06 05:12:46;;;;;;;2.13;1.13;;;;;;;17.23;62.25;102017.16;5095529;27;20040;-68
2022/08/06 05:15:20;;;;;;;3.38;1.13;;;;;;;17.49;61.46;102021.78;5085368;27;20048;-69
2022/08/06 05:17:50;;;;;;;9.38;1.30;;;;;;;17.67;61.32;102018.97;5104556;27;20438;-68
2022/08/06 05:20:19;;;;;;;3.22;1.30;;;;;;;18.02;60.58;102025.63;5107222;27;20052;-68
2022/08/06 05:22:53;;;;;;;2.92;1.17;;;;;;;18.08;60.05;102035.84;5086722;27;20086;-68
2022/08/06 05:25:20;;;;;;;5.65;1.20;;;;;;;17.88;60.58;102034.47;5081430;27;20044;-68
2022/08/06 05:27:47;;;;;;;1.85;0.98;;;;;;;17.96;61.02;102042.78;5094431;27;20506;-68
2022/08/06 05:30:14;;;;;;;2.92;0.90;;;;;;;18.31;59.46;102035.28;5105006;27;20048;-68
2022/08/06 05:32:44;;;;;;;12.40;1.88;;;;;;;18.19;58.96;102041.34;5088923;27;20044;-68
2022/08/06 05:35:10;;;;;;;3.60;1.00;;;;;;;18.58;58.70;102048.63;5087486;28;20044;-68
2022/08/06 05:37:37;;;;;;;2.33;1.02;;;;;;;18.67;57.95;102047.16;5088022;27;20441;-68
2022/08/06 05:40:07;;;;;;;4.15;1.10;;;;;;;18.59;58.44;102036.19;5103166;27;20055;-69
2022/08/06 05:42:33;;;;;;;4.20;1.10;;;;;;;18.75;57.66;102045.72;5107006;27;20649;-69
2022/08/06 05:45:00;;;;;;;2.85;1.08;;;;;;;18.62;58.14;102047.47;5099391;27;20040;-68
2022/08/06 05:47:29;;;;;;;5.15;1.10;;;;;;;18.87;58.08;102046.72;5096164;27;20043;-68
2022/08/06 05:50:01;;;;;;;3.47;0.90;;;;;;;19.20;57.32;102047.16;5091135;27;20048;-68
2022/08/06 05:52:32;;;;;;;2.03;1.10;;;;;;;19.22;56.00;102057.66;5096845;27;20093;-68
2022/08/06 05:55:05;;;;;;;3.03;1.02;;;;;;;19.73;55.33;102063.97;5096411;27;20051;-68
2022/08/06 05:57:37;;;;;;;1.77;0.90;;;;;;;19.49;56.46;102065.63;5066071;28;20070;-69
2022/08/06 06:00:09;;;;;;;3.25;1.02;;;;;;;20.06;55.72;102072.25;5068130;28;20048;-68
2022/08/06 06:02:37;;;;;;;3.67;1.13;;;;;;;20.47;53.52;102057.84;5089173;27;20063;-68
2022/08/06 06:05:04;;;;;;;3.00;1.20;;;;;;;20.98;52.21;102066.47;5067024;28;20040;-68
2022/08/06 06:07:31;;;;;;;3.38;0.95;;;;;;;21.15;51.42;102064.28;5081758;27;20124;-68
2022/08/06 06:09:58;;;;;;;3.88;0.98;;;;;;;20.94;51.83;102065.00;5092328;27;20423;-68
2022/08/06 06:12:25;;;;;;;3.08;0.80;;;;;;;21.42;50.44;102066.69;5104307;27;20048;-68
2022/08/06 06:14:52;;;;;;;2.72;1.10;;;;;;;21.30;50.79;102078.28;5093725;27;20484;-68
2022/08/06 06:17:31;;;;;;;2.70;0.73;;;;;;;21.45;50.33;102071.78;5093618;27;20044;-68
2022/08/06 06:20:07;;;;;;;6.28;1.08;;;;;;;21.20;50.08;102072.81;5075878;27;20055;-68
2022/08/06 06:22:42;;;;;;;2.20;1.10;;;;;;;21.70;49.46;102073.41;5092932;27;20048;-68
2022/08/06 06:25:13;;;;;;;1.70;0.70;;;;;;;21.78;49.16;102077.19;5087197;27;20032;-68
2022/08/06 06:27:46;;;;;;;4.10;0.90;;;;;;;22.01;48.40;102070.09;5079961;27;20075;-68
2022/08/06 06:30:18;;;;;;;1.77;0.75;;;;;;;21.99;48.30;102072.00;5064263;28;20049;-67
2022/08/06 06:32:51;;;;;;;1.90;0.85;;;;;;;22.41;47.64;102073.09;5066141;28;20455;-67
2022/08/06 06:35:24;;;;;;;2.97;1.10;;;;;;;21.97;48.48;102084.66;5081814;28;20063;-68
2022/08/06 06:37:58;;;;;;;3.13;0.88;;;;;;;22.54;47.26;102081.00;5086187;28;20039;-68
2022/08/06 06:40:37;;;;;;;3.50;1.20;;;;;;;22.68;46.83;102078.94;5083157;28;20626;-69
2022/08/06 06:43:09;;;;;;;8.38;1.05;;;;;;;22.83;46.47;102090.22;5085487;28;20054;-68
2022/08/06 06:45:47;;;;;;;2.65;0.90;;;;;;;22.72;46.55;102099.09;5065768;28;20048;-68
2022/08/06 06:48:17;;;;;;;1.52;0.80;;;;;;;23.01;46.25;102101.22;5065455;28;20118;-68
2022/08/06 06:50:48;;;;;;;3.35;0.85;;;;;;;23.27;45.28;102105.25;5063695;28;20362;-68
2022/08/06 06:53:17;;;;;;;1.23;0.70;;;;;;;23.19;44.98;102107.72;5077689;28;20078;-74
2022/08/06 06:55:45;;;;;;;4.30;1.13;;;;;;;23.41;43.56;102106.75;5064958;28;20055;-77
2022/08/06 06:58:19;;;;;;;3.42;0.90;;;;;;;24.05;44.34;102103.00;5062845;28;20474;-76
2022/08/06 07:00:48;;;;;;;7.00;1.00;;;;;;;24.18;42.57;102095.59;5070413;28;20487;-75
2022/08/06 07:03:17;;;;;;;1.55;0.80;;;;;;;24.02;42.20;102103.25;5071660;28;20304;-75
2022/08/06 07:05:47;;;;;;;3.63;0.90;;;;;;;24.00;42.38;102104.38;5064594;28;20458;-75
2022/08/06 07:08:15;;;;;;;4.43;0.70;;;;;;;23.55;43.34;102098.44;5062863;28;20053;-73
2022/08/06 07:10:43;;;;;;;2.53;0.85;;;;;;;23.65;44.10;102107.41;5074652;27;20075;-70
2022/08/06 07:13:11;;;;;;;1.73;0.60;;;;;;;23.79;42.97;102101.72;5099353;27;20096;-70
2022/08/06 07:15:38;;;;;;;2.72;0.80;;;;;;;24.00;42.63;102115.94;5075555;27;20040;-70
2022/08/06 07:18:07;;;;;;;1.80;0.80;;;;;;;23.90;41.65;102107.00;5084961;27;20044;-70
2022/08/06 07:20:34;;;;;;;1.85;0.63;;;;;;;24.38;42.08;102107.25;5084991;27;20041;-70
2022/08/06 07:23:04;;;;;;;4.00;0.80;;;;;;;24.60;41.68;102112.41;5093055;27;20540;-70
2022/08/06 07:25:34;;;;;;;1.35;0.80;;;;;;;24.80;42.36;102120.47;5103464;27;20058;-70
2022/08/06 07:28:01;;;;;;;3.38;0.85;;;;;;;24.87;43.80;102119.81;5097598;27;20575;-70
2022/08/06 07:30:28;;;;;;;4.18;0.88;;;;;;;25.39;40.21;102123.13;5084900;27;20044;-70
2022/08/06 07:32:54;;;;;;;2.15;1.20;;;;;;;25.58;40.11;102117.78;5083548;27;20043;-70
2022/08/06 07:35:22;;;;;;;1.90;0.65;;;;;;;25.59;39.70;102123.00;5083508;28;20047;-70
2022/08/06 07:37:54;;;;;;;3.85;0.90;;;;;;;25.20;39.28;102124.81;5103281;27;20043;-70
2022/08/06 07:40:25;;;;;;;3.10;0.88;;;;;;;25.40;38.86;102116.75;5091888;28;20043;-70
2022/08/06 07:42:56;;;;;;;3.72;0.88;;;;;;;25.19;37.63;102116.91;5099898;27;20483;-70
2022/08/06 07:45:25;;;;;;;2.00;0.65;;;;;;;25.11;38.80;102124.81;5103666;27;20507;-70
2022/08/06 07:47:53;;;;;;;2.17;0.60;;;;;;;25.18;37.49;102117.91;5104292;27;20445;-70
2022/08/06 07:50:24;;;;;;;1.88;0.75;;;;;;;25.48;38.73;102117.75;5100171;27;20539;-70
2022/08/06 07:52:52;;;;;;;2.17;0.65;;;;;;;25.63;39.12;102126.25;5082105;27;20050;-70
2022/08/06 07:55:21;;;;;;;4.05;0.70;;;;;;;25.98;38.44;102131.84;5099920;27;20048;-70
2022/08/06 07:57:48;;;;;;;1.55;0.60;;;;;;;26.23;38.51;102137.59;5091668;27;20556;-70
2022/08/06 08:00:15;;;;;;;2.25;0.50;;;;;;;26.58;36.53;102118.88;5096406;27;20101;-70
2022/08/06 08:06:17;;;;;;;2.28;0.70;;;;;;;26.56;37.34;102128.97;5096329;27;20067;-70
2022/08/06 08:08:15;;;;;;;3.05;0.93;;;;;;;25.99;35.87;102130.00;5087379;27;20058;-71
2022/08/06 08:10:42;;;;;;;3.35;0.70;;;;;;;26.10;35.96;102136.06;5081892;28;20211;-72
2022/08/06 08:13:10;;;;;;;7.22;0.93;;;;;;;25.05;36.71;102126.25;5084449;28;20500;-72
2022/08/06 08:15:37;;;;;;;2.90;0.70;;;;;;;25.43;37.27;102137.97;5087454;28;20044;-71
2022/08/06 08:18:04;;;;;;;1.30;0.63;;;;;;;25.54;38.06;102138.69;5088111;28;20113;-71
2022/08/06 08:20:34;;;;;;;1.40;0.60;;;;;;;25.86;36.52;102137.53;5088788;27;20096;-70
2022/08/06 08:23:01;;;;;;;1.10;0.57;;;;;;;25.97;36.59;102143.59;5107761;27;20039;-70
2022/08/06 08:25:28;;;;;;;2.85;0.90;;;;;;;26.37;37.25;102139.81;5075085;28;20056;-71
2022/08/06 08:27:54;;;;;;;2.20;0.70;;;;;;;26.23;35.24;102140.28;5093673;27;20039;-69
2022/08/06 08:30:20;;;;;;;3.03;0.82;;;;;;;25.86;35.85;102145.59;5109502;27;20059;-69
2022/08/06 08:32:47;;;;;;;3.55;0.80;;;;;;;26.19;35.96;102146.97;5102182;27;20040;-69
2022/08/06 08:35:15;;;;;;;4.15;0.70;;;;;;;26.77;34.19;102132.25;5092179;27;20392;-70
2022/08/06 08:37:43;;;;;;;1.88;0.50;;;;;;;26.91;34.13;102136.28;5086940;27;20044;-69
2022/08/06 08:40:11;;;;;;;2.83;0.90;;;;;;;26.25;34.44;102143.66;5087813;27;20495;-70
2022/08/06 08:42:41;;;;;;;2.00;0.63;;;;;;;26.66;36.03;102147.75;5088627;27;20093;-69
2022/08/06 08:45:09;;;;;;;1.73;0.57;;;;;;;26.85;34.32;102136.91;5086582;27;20442;-69
2022/08/06 08:47:40;;;;;;;2.05;0.50;;;;;;;26.92;34.22;102146.06;5089083;27;20051;-69
2022/08/06 08:50:07;;;;;;;2.08;0.60;;;;;;;26.98;33.44;102143.59;5092236;27;20113;-69
2022/08/06 08:52:35;;;;;;;2.00;0.60;;;;;;;26.47;32.36;102152.22;5083316;27;20040;-70
2022/08/06 08:55:06;;;;;;;2.90;0.85;;;;;;;26.09;33.34;102150.47;5077056;27;20422;-69
2022/08/06 08:57:33;;;;;;;4.33;0.70;;;;;;;25.96;34.39;102146.41;5088795;27;20044;-69
2022/08/06 09:00:02;;;;;;;2.83;0.82;;;;;;;25.96;36.08;102139.22;5086495;27;20040;-69
2022/08/06 09:02:28;;;;;;;2.97;0.77;;;;;;;26.67;36.72;102149.44;5087325;27;20818;-69
2022/08/06 09:04:55;;;;;;;4.22;0.60;;;;;;;27.40;33.57;102137.63;5087974;28;20097;-69
2022/08/06 09:07:21;;;;;;;3.67;1.00;;;;;;;27.83;32.28;102139.50;5086437;27;20484;-69
2022/08/06 09:09:48;;;;;;;2.45;0.95;;;;;;;28.06;32.16;102135.28;5086237;27;20485;-69
2022/08/06 09:12:17;;;;;;;1.80;0.60;;;;;;;27.97;30.50;102137.06;5086896;27;20055;-69
2022/08/06 09:14:45;;;;;;;1.58;0.60;;;;;;;27.64;31.64;102140.56;5085566;27;20089;-69
2022/08/06 09:17:12;;;;;;;2.85;0.77;;;;;;;27.23;31.48;102142.03;5087537;27;20075;-69
2022/08/06 09:19:39;;;;;;;2.03;0.70;;;;;;;27.76;30.69;102138.44;5086834;27;20044;-69
2022/08/06 09:22:06;;;;;;;1.98;0.70;;;;;;;28.43;32.32;102140.41;5084965;27;20491;-69
2022/08/06 09:24:33;;;;;;;1.45;0.60;;;;;;;29.06;33.81;102146.22;5086870;27;20499;-69
2022/08/06 09:27:04;;;;;;;2.13;0.82;;;;;;;29.51;31.96;102140.38;5087158;27;20473;-69
2022/08/06 09:29:33;;;;;;;2.72;0.93;;;;;;;30.12;29.59;102144.41;5074620;27;20058;-69
2022/08/06 09:32:00;;;;;;;2.22;0.50;;;;;;;29.45;27.48;102132.97;5077422;27;20051;-69
2022/08/06 09:34:33;;;;;;;2.95;0.60;;;;;;;28.15;28.85;102137.06;5087333;28;20048;-69
2022/08/06 09:36:59;;;;;;;2.53;0.50;;;;;;;27.10;31.84;102145.09;5088007;28;20051;-69
2022/08/06 09:39:34;;;;;;;2.22;0.80;;;;;;;26.37;31.77;102158.63;5087703;27;20070;-69
2022/08/06 09:42:01;;;;;;;4.75;0.65;;;;;;;25.63;32.35;102169.25;5084010;27;20071;-69
2022/08/06 09:44:28;;;;;;;2.58;0.68;;;;;;;25.19;34.41;102157.19;5085675;27;20055;-69
2022/08/06 09:46:57;;;;;;;4.55;0.70;;;;;;;25.23;36.30;102158.59;5088234;27;20044;-69
2022/08/06 09:49:24;;;;;;;3.83;0.93;;;;;;;25.84;37.85;102159.16;5085147;27;20126;-69
2022/08/06 09:51:50;;;;;;;3.97;0.80;;;;;;;25.89;31.76;102161.44;5087060;27;20112;-69
2022/08/06 09:54:17;;;;;;;2.55;0.57;;;;;;;25.65;33.12;102159.19;5087821;27;20580;-69
2022/08/06 09:56:44;;;;;;;2.20;0.85;;;;;;;25.53;33.09;102157.66;5086903;27;20469;-69
2022/08/06 09:59:12;;;;;;;2.40;0.70;;;;;;;25.79;34.52;102156.09;5092043;27;20044;-69
2022/08/06 10:01:40;;;;;;;2.45;0.80;;;;;;;26.20;37.99;102160.22;5086637;28;20116;-69
2022/08/06 10:04:13;;;;;;;3.88;0.77;;;;;;;26.78;35.35;102152.78;5085554;28;20040;-69
2022/08/06 10:06:51;;;;;;;1.95;0.90;;;;;;;26.64;34.48;102150.59;5086669;28;20487;-69
2022/08/06 10:09:18;;;;;;;2.80;0.90;;;;;;;26.95;33.40;102154.69;5085680;28;20048;-69
2022/08/06 10:11:44;;;;;;;2.88;0.57;;;;;;;26.79;34.48;102153.63;5085577;27;20044;-69
2022/08/06 10:14:22;;;;;;;3.30;0.80;;;;;;;26.61;34.33;102161.63;5086751;27;20044;-69
2022/08/06 10:17:03;;;;;;;1.67;0.70;;;;;;;26.98;32.52;102148.13;5075222;27;20483;-69
2022/08/06 10:19:31;;;;;;;2.50;0.60;;;;;;;27.42;34.81;102155.31;5076975;27;20097;-69
2022/08/06 10:22:04;;;;;;;2.30;0.70;;;;;;;27.93;30.75;102142.97;5084279;27;20039;-69
2022/08/06 10:24:32;;;;;;;3.03;0.98;;;;;;;28.04;32.29;102143.56;5086412;27;20044;-69
2022/08/06 10:26:59;;;;;;;3.80;0.85;;;;;;;27.75;28.89;102132.25;5076224;27;20047;-69
2022/08/06 10:29:27;;;;;;;2.78;0.75;;;;;;;27.34;31.31;102143.66;5079852;27;20173;-70
2022/08/06 10:31:54;;;;;;;1.42;0.57;;;;;;;26.85;30.06;102150.34;5083061;27;20415;-70
2022/08/06 10:34:25;;;;;;;1.85;0.60;;;;;;;26.36;31.72;102144.34;5083741;28;20047;-70
2022/08/06 10:36:55;;;;;;;2.13;0.85;;;;;;;27.02;33.86;102146.84;5065816;28;20098;-70
2022/08/06 10:39:26;;;;;;;3.42;0.80;;;;;;;26.81;32.77;102143.56;5051089;28;20051;-69
2022/08/06 10:41:55;;;;;;;2.05;0.60;;;;;;;26.53;32.49;102148.94;5076654;27;20048;-70
2022/08/06 10:44:23;;;;;;;1.17;0.57;;;;;;;26.92;33.15;102146.91;5086417;27;20048;-70
2022/08/06 10:46:51;;;;;;;3.95;0.80;;;;;;;27.58;27.66;102130.41;5086029;27;20055;-70
2022/08/06 10:49:19;;;;;;;3.70;0.80;;;;;;;27.35;28.86;102139.91;5087076;27;20430;-70
2022/08/06 10:51:48;;;;;;;3.78;0.90;;;;;;;27.34;29.20;102133.72;5095753;27;20393;-70
2022/08/06 10:54:16;;;;;;;1.40;0.65;;;;;;;27.08;30.35;102132.78;5083807;27;20055;-69
2022/08/06 10:56:43;;;;;;;1.63;0.60;;;;;;;26.52;30.19;102141.88;5061078;28;20074;-69
2022/08/06 10:59:13;;;;;;;2.25;0.60;;;;;;;26.24;30.16;102142.00;5079807;27;20098;-69
2022/08/06 11:01:47;;;;;;;2.45;0.70;;;;;;;25.86;30.97;102143.78;5084656;27;20048;-70
2022/08/06 11:04:21;;;;;;;2.78;0.63;;;;;;;26.36;34.52;102144.34;5084931;27;20444;-70
2022/08/06 11:07:09;;;;;;;2.35;0.68;;;;;;;27.02;28.34;102134.22;5087183;27;20051;-70
2022/08/06 11:10:03;;;;;;;1.95;0.50;;;;;;;28.22;32.19;102132.72;5062543;28;20049;-70
2022/08/06 11:12:45;;;;;;;3.00;0.68;;;;;;;28.23;27.37;102130.88;5081961;27;20105;-70
2022/08/06 11:15:11;;;;;;;2.40;0.73;;;;;;;28.47;29.37;102128.28;5073204;27;20503;-70
2022/08/06 11:17:46;;;;;;;3.30;0.47;;;;;;;28.38;28.34;102126.56;5083375;28;20094;-70
2022/08/06 11:20:37;;;;;;;2.13;0.50;;;;;;;28.04;28.00;102126.53;5104053;27;20051;-70
2022/08/06 11:23:05;;;;;;;1.08;0.40;;;;;;;27.28;28.03;102133.47;5105534;27;20597;-70
2022/08/06 11:25:41;;;;;;;2.15;0.60;;;;;;;26.80;30.59;102131.94;5092797;27;20052;-70
2022/08/06 11:28:08;;;;;;;1.80;0.55;;;;;;;26.27;30.64;102133.63;5102917;27;20495;-70
2022/08/06 11:30:40;;;;;;;0.98;0.55;;;;;;;26.49;30.54;102131.41;5094825;27;20044;-70
2022/08/06 11:33:07;;;;;;;3.95;0.60;;;;;;;27.08;31.53;102124.72;5080837;27;20635;-70
2022/08/06 11:35:48;;;;;;;2.30;0.60;;;;;;;27.61;30.32;102110.38;5085508;28;20055;-70
2022/08/06 11:38:16;;;;;;;2.30;0.53;;;;;;;27.11;28.66;102110.94;5085327;28;20044;-70
2022/08/06 11:40:58;;;;;;;2.67;0.60;;;;;;;26.42;30.39;102116.03;5083793;28;20044;-70